Hon Henry Jackman — C6VQ9 — position and weather

sailwx.info

Track history (hours):
 
Tides and Currents Weather Stations Pressure Air Temp Water Temp Dewpoint Dewpoint Depression Visibility Wind Speed Wind Dir Waves Ship Positions

Hon Henry Jackman

Last reported at 2018-May-23 08:34 UTC. Time now 2018-May-23 09:48 UTC.
Position N 43°24' W 126°15'.

Length 245 m; draft 8.2 m.

Type: Cargo ship. MMSI: 309822000.

Date/timePositionNaut miles runAvg speedWind from/ knotsBaromVisibWave heightAir tempDewpointWater temp
2018-May-23 08:34N 43°24' W 126°15'412.9
2018-May-23 08:16N 43°20' W 126°14'1213.0
2018-May-23 07:21N 43°08' W 126°11'513.1
2018-May-23 06:59N 43°03' W 126°09'29112.0
2018-May-22 06:51N 38°33' W 123°50'411.8
2018-May-22 06:30N 38°30' W 123°46'611.1
2018-May-22 06:00N 38°26' W 123°41'510.6
2018-May-22 05:30N 38°22' W 123°36'510.1
2018-May-22 05:00N 38°18' W 123°32'510.2
2018-May-22 04:30N 38°15' W 123°27'510.0
2018-May-22 04:00N 38°11' W 123°23'510.0
2018-May-22 03:30N 38°08' W 123°19'510.3
2018-May-22 03:00N 38°04' W 123°14'510.7
2018-May-22 02:30N 37°60' W 123°10'611.5
2018-May-22 02:00N 37°56' W 123°04'612.3
2018-May-22 01:30N 37°53' W 122°57'612.4
2018-May-22 01:00N 37°50' W 122°50'612.4
2018-May-22 00:30N 37°47' W 122°43'4 9.0
2018-May-22 00:00N 37°46' W 122°38'5 9.8
2018-May-21 23:29N 37°48' W 122°32'4 8.8
2018-May-21 23:00N 37°50' W 122°27'4 7.9
2018-May-21 22:30N 37°48' W 122°23'2 3.6
2018-May-21 21:56N 37°46' W 122°21'0 0.1
2018-May-21 21:29N 37°46' W 122°21'0 0.0
2018-May-21 20:56N 37°46' W 122°21'0 0.1
2018-May-21 20:29N 37°46' W 122°21'0 0.3
2018-May-21 19:59N 37°46' W 122°21'0 0.2
2018-May-21 19:29N 37°46' W 122°21'0 0.0
2018-May-21 18:59N 37°46' W 122°21'0 0.1
2018-May-21 18:29N 37°46' W 122°21'0 0.1
2018-May-21 17:59N 37°46' W 122°21'0 0.0
2018-May-21 17:23N 37°46' W 122°21'0 0.0
2018-May-21 16:59N 37°46' W 122°21'0 0.0
2018-May-21 16:29N 37°46' W 122°21'0 0.0
2018-May-21 15:59N 37°46' W 122°21'0 0.0
2018-May-21 15:30N 37°46' W 122°21'0 0.0
2018-May-21 15:00N 37°46' W 122°21'1 1.8
2018-May-21 14:30N 37°45' W 122°22'813.6
2018-May-21 13:56N 37°38' W 122°18'8 8.0
2018-May-21 12:52N 37°31' W 122°12'0 0.0
2018-May-20 14:06N 37°31' W 122°12'0 1.3
2018-May-20 13:59N 37°31' W 122°12'2 5.1
2018-May-20 13:30N 37°33' W 122°12'510.2
2018-May-20 13:00N 37°36' W 122°17'510.7
2018-May-20 12:30N 37°41' W 122°20'510.6
2018-May-20 12:00N 37°46' W 122°22'510.9
2018-May-20 11:30N 37°51' W 122°25'4 8.5
2018-May-20 11:00N 37°55' W 122°25'3 5.9
2018-May-20 10:30N 37°54' W 122°22'1 1.3
2018-May-20 09:54N 37°55' W 122°22'0 0.0
2018-May-20 09:30N 37°55' W 122°22'0 0.0
2018-May-20 09:00N 37°55' W 122°22'0 0.0
2018-May-20 08:30N 37°55' W 122°22'0 0.0
2018-May-20 07:45N 37°55' W 122°22'0 0.0
2018-May-20 07:24N 37°55' W 122°22'0 0.0
2018-May-20 07:00N 37°55' W 122°22'0 0.0
2018-May-20 06:30N 37°55' W 122°22'0 0.0
2018-May-20 06:00N 37°55' W 122°22'0 0.0
2018-May-20 05:30N 37°55' W 122°22'0 0.0
2018-May-20 03:48N 37°55' W 122°22'0 0.0
2018-May-20 03:30N 37°55' W 122°22'0 0.0
2018-May-20 03:00N 37°55' W 122°22'0 0.0
2018-May-20 02:29N 37°55' W 122°22'0 1.0
2018-May-20 02:00N 37°55' W 122°22'1 1.0
2018-May-20 01:30N 37°54' W 122°22'2 4.5
2018-May-20 00:59N 37°55' W 122°25'3 6.2
2018-May-20 00:31N 37°52' W 122°25'5 9.3
2018-May-20 00:00N 37°48' W 122°22'3 6.5
2018-May-19 23:30N 37°45' W 122°21'0 0.1
2018-May-19 22:59N 37°45' W 122°21'0 0.1
2018-May-19 22:28N 37°45' W 122°21'0 0.1
2018-May-19 21:58N 37°45' W 122°21'0 0.1
2018-May-19 21:29N 37°45' W 122°21'0 0.1
2018-May-19 20:59N 37°45' W 122°21'0 0.0
2018-May-19 20:28N 37°45' W 122°21'0 0.0
2018-May-19 19:58N 37°45' W 122°21'0 0.1
2018-May-19 19:28N 37°45' W 122°21'0 0.3
2018-May-19 18:58N 37°45' W 122°21'0 0.3
2018-May-19 18:22N 37°45' W 122°21'0 0.1
2018-May-19 17:55N 37°45' W 122°21'0 0.1
2018-May-19 17:28N 37°45' W 122°21'0 0.0
2018-May-19 16:55N 37°45' W 122°21'0 0.0
2018-May-19 16:28N 37°45' W 122°21'0 0.0
2018-May-19 15:58N 37°45' W 122°21'0 0.1
2018-May-19 15:28N 37°45' W 122°21'0 0.0
2018-May-19 14:58N 37°45' W 122°21'0 0.0
2018-May-19 14:28N 37°45' W 122°21'0 0.0
2018-May-19 13:58N 37°45' W 122°21'0 0.0
2018-May-19 13:28N 37°45' W 122°21'0 0.0
2018-May-19 12:58N 37°45' W 122°21'0 0.1
2018-May-19 12:28N 37°45' W 122°21'0 0.0
2018-May-19 11:58N 37°45' W 122°21'0 0.0
2018-May-19 11:28N 37°45' W 122°21'0 0.4
2018-May-19 10:58N 37°45' W 122°21'0 0.3
2018-May-19 10:28N 37°45' W 122°21'0 0.1
2018-May-19 09:58N 37°45' W 122°21'0 0.1
2018-May-19 09:28N 37°45' W 122°21'0 0.0
2018-May-19 08:58N 37°45' W 122°21'0 0.0
2018-May-19 08:28N 37°45' W 122°21'0 0.0
2018-May-19 07:58N 37°45' W 122°21'0 0.0
2018-May-19 07:28N 37°45' W 122°21'0 0.0
2018-May-19 06:58N 37°45' W 122°21'0 0.0
2018-May-19 06:28N 37°45' W 122°21'0 0.0
2018-May-19 05:58N 37°45' W 122°21'0 0.1
2018-May-19 05:28N 37°45' W 122°21'0 0.3
2018-May-19 04:58N 37°45' W 122°21'0 0.2
2018-May-19 04:28N 37°45' W 122°21'0 0.1
2018-May-19 03:58N 37°45' W 122°21'0 0.0
2018-May-19 03:28N 37°45' W 122°21'0 0.0
2018-May-19 02:55N 37°45' W 122°21'0 0.0
2018-May-19 02:28N 37°45' W 122°21'0 0.0
2018-May-19 01:58N 37°45' W 122°21'0 0.0
2018-May-19 01:28N 37°45' W 122°21'0 0.1
2018-May-19 00:58N 37°45' W 122°21'0 0.3
2018-May-19 00:28N 37°45' W 122°21'0 0.3
2018-May-18 23:58N 37°45' W 122°21'0 0.1
2018-May-18 23:25N 37°45' W 122°21'0 0.1
2018-May-18 22:58N 37°45' W 122°21'0 0.0
2018-May-18 22:28N 37°45' W 122°21'0 0.0
2018-May-18 21:58N 37°45' W 122°21'0 0.0
2018-May-18 21:28N 37°45' W 122°21'0 0.0
2018-May-18 20:58N 37°45' W 122°21'0 0.0
2018-May-18 20:28N 37°45' W 122°21'0 0.0
2018-May-18 19:58N 37°45' W 122°21'0 0.0
2018-May-18 19:28N 37°45' W 122°21'0 0.0
2018-May-18 18:58N 37°45' W 122°21'0 0.0
2018-May-18 18:28N 37°45' W 122°21'0 0.0
2018-May-18 17:58N 37°45' W 122°21'0 0.4
2018-May-18 17:31N 37°45' W 122°21'0 0.3
2018-May-18 17:01N 37°45' W 122°21'0 0.1
2018-May-18 16:28N 37°45' W 122°21'0 0.1
2018-May-18 16:00N 37°45' W 122°21'0 0.0
2018-May-18 15:27N 37°45' W 122°21'0 0.0
2018-May-18 15:01N 37°45' W 122°21'0 0.0
2018-May-18 14:30N 37°45' W 122°21'1 1.6
2018-May-18 14:00N 37°46' W 122°21'4 7.5
2018-May-18 13:30N 37°49' W 122°24'4 7.9
2018-May-18 13:00N 37°49' W 122°29'4 8.1
2018-May-18 12:30N 37°47' W 122°34'5 9.2
2018-May-18 12:01N 37°46' W 122°39'610.3
2018-May-18 11:25N 37°47' W 122°47'512.0
2018-May-18 11:00N 37°49' W 122°53'611.8
2018-May-18 10:30N 37°52' W 122°59'611.7
2018-May-18 10:00N 37°55' W 123°05'511.1
2018-May-18 09:30N 37°58' W 123°11'611.4
2018-May-18 09:00N 38°02' W 123°16'611.7
2018-May-18 08:30N 38°07' W 123°21'611.9
2018-May-18 08:00N 38°11' W 123°26'611.9
2018-May-18 07:30N 38°15' W 123°31'612.5
2018-May-18 07:00N 38°20' W 123°36'612.3
2018-May-18 06:30N 38°25' W 123°42'611.8
2018-May-18 06:00N 38°29' W 123°47'41612.2
2018-May-16 19:47N 45°06' W 126°30'1812.2
2018-May-16 18:21N 45°24' W 126°36'21612.2
2018-May-16 00:35N 48°53' W 127°54'211.9
2018-May-16 00:25N 48°55' W 127°55'10111.8
2018-May-15 15:54N 50°33' W 128°30'1512.0
2018-May-15 14:42N 50°47' W 128°30'211.2
2018-May-15 14:30N 50°49' W 128°27'612.0
2018-May-15 14:00N 50°52' W 128°20'612.2
2018-May-15 13:30N 50°56' W 128°12'612.6
2018-May-15 13:00N 50°60' W 128°04'712.6
2018-May-15 12:29N 51°00' W 127°54'5 9.9
2018-May-15 11:59N 50°58' W 127°47'612.0
2018-May-15 11:30N 50°55' W 127°39'612.6
2018-May-15 11:00N 50°51' W 127°31'612.2
2018-May-15 10:30N 50°47' W 127°23'14 0.5
2018-May-14 08:12N 50°37' W 127°08'1 4.2
2018-May-14 07:59N 50°37' W 127°09'5 9.0
2018-May-14 07:23N 50°41' W 127°15'512.9
2018-May-14 07:00N 50°45' W 127°20'713.2
2018-May-14 06:30N 50°50' W 127°27'713.6
2018-May-14 06:00N 50°53' W 127°37'713.2
2018-May-14 05:29N 50°58' W 127°45'510.6
2018-May-14 05:00N 50°60' W 127°52'510.6
2018-May-14 04:30N 51°00' W 128°01'611.7
2018-May-14 04:00N 50°57' W 128°09'713.6
2018-May-14 03:30N 50°53' W 128°18'713.9
2018-May-14 03:00N 50°49' W 128°26'611.7
2018-May-14 02:31N 50°44' W 128°30'612.9
2018-May-14 02:00N 50°37' W 128°30'612.3
2018-May-14 01:30N 50°31' W 128°30'612.7
2018-May-14 01:00N 50°25' W 128°30'1012.5
2018-May-14 00:14N 50°16' W 128°26'312.1
2018-May-14 00:00N 50°13' W 128°25'1712.5
2018-May-13 22:37N 49°56' W 128°20'6412.6
2018-May-13 17:32N 48°53' W 127°60'3112.0
2018-May-13 14:56N 48°23' W 127°50'1012.2
2018-May-13 14:04N 48°13' W 127°46'112.3
2018-May-13 13:58N 48°11' W 127°45'612.2
2018-May-13 13:29N 48°06' W 127°43'612.2
2018-May-13 13:00N 47°60' W 127°41'612.1
2018-May-13 12:29N 47°54' W 127°39'612.1
2018-May-13 11:59N 47°48' W 127°38'612.0
2018-May-13 11:30N 47°42' W 127°36'712.2
2018-May-13 10:57N 47°36' W 127°34'1611.9
2018-May-13 09:37N 47°20' W 127°29'112.2
2018-May-13 09:30N 47°19' W 127°28'612.2
2018-May-13 09:00N 47°13' W 127°26'  
Track history (hours):
 
Tides and Currents Weather Stations Pressure Air Temp Water Temp Dewpoint Dewpoint Depression Visibility Wind Speed Wind Dir Waves Ship Positions

Hon Henry Jackman

Last reported at 2018-May-23 08:34 UTC. Time now 2018-May-23 09:48 UTC.
Position N 43°24' W 126°15'.

Length 245 m; draft 8.2 m.

Type: Cargo ship. MMSI: 309822000.

Date/timePositionNaut miles runAvg speedWind from/ knotsBaromVisibWave heightAir tempDewpointWater temp
2018-May-23 08:34N 43°24' W 126°15'412.9
2018-May-23 08:16N 43°20' W 126°14'1213.0
2018-May-23 07:21N 43°08' W 126°11'513.1
2018-May-23 06:59N 43°03' W 126°09'29112.0
2018-May-22 06:51N 38°33' W 123°50'411.8
2018-May-22 06:30N 38°30' W 123°46'611.1
2018-May-22 06:00N 38°26' W 123°41'510.6
2018-May-22 05:30N 38°22' W 123°36'510.1
2018-May-22 05:00N 38°18' W 123°32'510.2
2018-May-22 04:30N 38°15' W 123°27'510.0
2018-May-22 04:00N 38°11' W 123°23'510.0
2018-May-22 03:30N 38°08' W 123°19'510.3
2018-May-22 03:00N 38°04' W 123°14'510.7
2018-May-22 02:30N 37°60' W 123°10'611.5
2018-May-22 02:00N 37°56' W 123°04'612.3
2018-May-22 01:30N 37°53' W 122°57'612.4
2018-May-22 01:00N 37°50' W 122°50'612.4
2018-May-22 00:30N 37°47' W 122°43'4 9.0
2018-May-22 00:00N 37°46' W 122°38'5 9.8
2018-May-21 23:29N 37°48' W 122°32'4 8.8
2018-May-21 23:00N 37°50' W 122°27'4 7.9
2018-May-21 22:30N 37°48' W 122°23'2 3.6
2018-May-21 21:56N 37°46' W 122°21'0 0.1
2018-May-21 21:29N 37°46' W 122°21'0 0.0
2018-May-21 20:56N 37°46' W 122°21'0 0.1
2018-May-21 20:29N 37°46' W 122°21'0 0.3
2018-May-21 19:59N 37°46' W 122°21'0 0.2
2018-May-21 19:29N 37°46' W 122°21'0 0.0
2018-May-21 18:59N 37°46' W 122°21'0 0.1
2018-May-21 18:29N 37°46' W 122°21'0 0.1
2018-May-21 17:59N 37°46' W 122°21'0 0.0
2018-May-21 17:23N 37°46' W 122°21'0 0.0
2018-May-21 16:59N 37°46' W 122°21'0 0.0
2018-May-21 16:29N 37°46' W 122°21'0 0.0
2018-May-21 15:59N 37°46' W 122°21'0 0.0
2018-May-21 15:30N 37°46' W 122°21'0 0.0
2018-May-21 15:00N 37°46' W 122°21'1 1.8
2018-May-21 14:30N 37°45' W 122°22'813.6
2018-May-21 13:56N 37°38' W 122°18'8 8.0
2018-May-21 12:52N 37°31' W 122°12'0 0.0
2018-May-20 14:06N 37°31' W 122°12'0 1.3
2018-May-20 13:59N 37°31' W 122°12'2 5.1
2018-May-20 13:30N 37°33' W 122°12'510.2
2018-May-20 13:00N 37°36' W 122°17'510.7
2018-May-20 12:30N 37°41' W 122°20'510.6
2018-May-20 12:00N 37°46' W 122°22'510.9
2018-May-20 11:30N 37°51' W 122°25'4 8.5
2018-May-20 11:00N 37°55' W 122°25'3 5.9
2018-May-20 10:30N 37°54' W 122°22'1 1.3
2018-May-20 09:54N 37°55' W 122°22'0 0.0
2018-May-20 09:30N 37°55' W 122°22'0 0.0
2018-May-20 09:00N 37°55' W 122°22'0 0.0
2018-May-20 08:30N 37°55' W 122°22'0 0.0
2018-May-20 07:45N 37°55' W 122°22'0 0.0
2018-May-20 07:24N 37°55' W 122°22'0 0.0
2018-May-20 07:00N 37°55' W 122°22'0 0.0
2018-May-20 06:30N 37°55' W 122°22'0 0.0
2018-May-20 06:00N 37°55' W 122°22'0 0.0
2018-May-20 05:30N 37°55' W 122°22'0 0.0
2018-May-20 03:48N 37°55' W 122°22'0 0.0
2018-May-20 03:30N 37°55' W 122°22'0 0.0
2018-May-20 03:00N 37°55' W 122°22'0 0.0
2018-May-20 02:29N 37°55' W 122°22'0 1.0
2018-May-20 02:00N 37°55' W 122°22'1 1.0
2018-May-20 01:30N 37°54' W 122°22'2 4.5
2018-May-20 00:59N 37°55' W 122°25'3 6.2
2018-May-20 00:31N 37°52' W 122°25'5 9.3
2018-May-20 00:00N 37°48' W 122°22'3 6.5
2018-May-19 23:30N 37°45' W 122°21'0 0.1
2018-May-19 22:59N 37°45' W 122°21'0 0.1
2018-May-19 22:28N 37°45' W 122°21'0 0.1
2018-May-19 21:58N 37°45' W 122°21'0 0.1
2018-May-19 21:29N 37°45' W 122°21'0 0.1
2018-May-19 20:59N 37°45' W 122°21'0 0.0
2018-May-19 20:28N 37°45' W 122°21'0 0.0
2018-May-19 19:58N 37°45' W 122°21'0 0.1
2018-May-19 19:28N 37°45' W 122°21'0 0.3
2018-May-19 18:58N 37°45' W 122°21'0 0.3
2018-May-19 18:22N 37°45' W 122°21'0 0.1
2018-May-19 17:55N 37°45' W 122°21'0 0.1
2018-May-19 17:28N 37°45' W 122°21'0 0.0
2018-May-19 16:55N 37°45' W 122°21'0 0.0
2018-May-19 16:28N 37°45' W 122°21'0 0.0
2018-May-19 15:58N 37°45' W 122°21'0 0.1
2018-May-19 15:28N 37°45' W 122°21'0 0.0
2018-May-19 14:58N 37°45' W 122°21'0 0.0
2018-May-19 14:28N 37°45' W 122°21'0 0.0
2018-May-19 13:58N 37°45' W 122°21'0 0.0
2018-May-19 13:28N 37°45' W 122°21'0 0.0
2018-May-19 12:58N 37°45' W 122°21'0 0.1
2018-May-19 12:28N 37°45' W 122°21'0 0.0
2018-May-19 11:58N 37°45' W 122°21'0 0.0
2018-May-19 11:28N 37°45' W 122°21'0 0.4
2018-May-19 10:58N 37°45' W 122°21'0 0.3
2018-May-19 10:28N 37°45' W 122°21'0 0.1
2018-May-19 09:58N 37°45' W 122°21'0 0.1
2018-May-19 09:28N 37°45' W 122°21'0 0.0
2018-May-19 08:58N 37°45' W 122°21'0 0.0
2018-May-19 08:28N 37°45' W 122°21'0 0.0
2018-May-19 07:58N 37°45' W 122°21'0 0.0
2018-May-19 07:28N 37°45' W 122°21'0 0.0
2018-May-19 06:58N 37°45' W 122°21'0 0.0
2018-May-19 06:28N 37°45' W 122°21'0 0.0
2018-May-19 05:58N 37°45' W 122°21'0 0.1
2018-May-19 05:28N 37°45' W 122°21'0 0.3
2018-May-19 04:58N 37°45' W 122°21'0 0.2
2018-May-19 04:28N 37°45' W 122°21'0 0.1
2018-May-19 03:58N 37°45' W 122°21'0 0.0
2018-May-19 03:28N 37°45' W 122°21'0 0.0
2018-May-19 02:55N 37°45' W 122°21'0 0.0
2018-May-19 02:28N 37°45' W 122°21'0 0.0
2018-May-19 01:58N 37°45' W 122°21'0 0.0
2018-May-19 01:28N 37°45' W 122°21'0 0.1
2018-May-19 00:58N 37°45' W 122°21'0 0.3
2018-May-19 00:28N 37°45' W 122°21'0 0.3
2018-May-18 23:58N 37°45' W 122°21'0 0.1
2018-May-18 23:25N 37°45' W 122°21'0 0.1
2018-May-18 22:58N 37°45' W 122°21'0 0.0
2018-May-18 22:28N 37°45' W 122°21'0 0.0
2018-May-18 21:58N 37°45' W 122°21'0 0.0
2018-May-18 21:28N 37°45' W 122°21'0 0.0
2018-May-18 20:58N 37°45' W 122°21'0 0.0
2018-May-18 20:28N 37°45' W 122°21'0 0.0
2018-May-18 19:58N 37°45' W 122°21'0 0.0
2018-May-18 19:28N 37°45' W 122°21'0 0.0
2018-May-18 18:58N 37°45' W 122°21'0 0.0
2018-May-18 18:28N 37°45' W 122°21'0 0.0
2018-May-18 17:58N 37°45' W 122°21'0 0.4
2018-May-18 17:31N 37°45' W 122°21'0 0.3
2018-May-18 17:01N 37°45' W 122°21'0 0.1
2018-May-18 16:28N 37°45' W 122°21'0 0.1
2018-May-18 16:00N 37°45' W 122°21'0 0.0
2018-May-18 15:27N 37°45' W 122°21'0 0.0
2018-May-18 15:01N 37°45' W 122°21'0 0.0
2018-May-18 14:30N 37°45' W 122°21'1 1.6
2018-May-18 14:00N 37°46' W 122°21'4 7.5
2018-May-18 13:30N 37°49' W 122°24'4 7.9
2018-May-18 13:00N 37°49' W 122°29'4 8.1
2018-May-18 12:30N 37°47' W 122°34'5 9.2
2018-May-18 12:01N 37°46' W 122°39'610.3
2018-May-18 11:25N 37°47' W 122°47'512.0
2018-May-18 11:00N 37°49' W 122°53'611.8
2018-May-18 10:30N 37°52' W 122°59'611.7
2018-May-18 10:00N 37°55' W 123°05'511.1
2018-May-18 09:30N 37°58' W 123°11'611.4
2018-May-18 09:00N 38°02' W 123°16'611.7
2018-May-18 08:30N 38°07' W 123°21'611.9
2018-May-18 08:00N 38°11' W 123°26'611.9
2018-May-18 07:30N 38°15' W 123°31'612.5
2018-May-18 07:00N 38°20' W 123°36'612.3
2018-May-18 06:30N 38°25' W 123°42'611.8
2018-May-18 06:00N 38°29' W 123°47'41612.2
2018-May-16 19:47N 45°06' W 126°30'1812.2
2018-May-16 18:21N 45°24' W 126°36'21612.2
2018-May-16 00:35N 48°53' W 127°54'211.9
2018-May-16 00:25N 48°55' W 127°55'10111.8
2018-May-15 15:54N 50°33' W 128°30'1512.0
2018-May-15 14:42N 50°47' W 128°30'211.2
2018-May-15 14:30N 50°49' W 128°27'612.0
2018-May-15 14:00N 50°52' W 128°20'612.2
2018-May-15 13:30N 50°56' W 128°12'612.6
2018-May-15 13:00N 50°60' W 128°04'712.6
2018-May-15 12:29N 51°00' W 127°54'5 9.9
2018-May-15 11:59N 50°58' W 127°47'612.0
2018-May-15 11:30N 50°55' W 127°39'612.6
2018-May-15 11:00N 50°51' W 127°31'612.2
2018-May-15 10:30N 50°47' W 127°23'14 0.5
2018-May-14 08:12N 50°37' W 127°08'1 4.2
2018-May-14 07:59N 50°37' W 127°09'5 9.0
2018-May-14 07:23N 50°41' W 127°15'512.9
2018-May-14 07:00N 50°45' W 127°20'713.2
2018-May-14 06:30N 50°50' W 127°27'713.6
2018-May-14 06:00N 50°53' W 127°37'713.2
2018-May-14 05:29N 50°58' W 127°45'510.6
2018-May-14 05:00N 50°60' W 127°52'510.6
2018-May-14 04:30N 51°00' W 128°01'611.7
2018-May-14 04:00N 50°57' W 128°09'713.6
2018-May-14 03:30N 50°53' W 128°18'713.9
2018-May-14 03:00N 50°49' W 128°26'611.7
2018-May-14 02:31N 50°44' W 128°30'612.9
2018-May-14 02:00N 50°37' W 128°30'612.3
2018-May-14 01:30N 50°31' W 128°30'612.7
2018-May-14 01:00N 50°25' W 128°30'1012.5
2018-May-14 00:14N 50°16' W 128°26'312.1
2018-May-14 00:00N 50°13' W 128°25'1712.5
2018-May-13 22:37N 49°56' W 128°20'6412.6
2018-May-13 17:32N 48°53' W 127°60'3112.0
2018-May-13 14:56N 48°23' W 127°50'1012.2
2018-May-13 14:04N 48°13' W 127°46'112.3
2018-May-13 13:58N 48°11' W 127°45'612.2
2018-May-13 13:29N 48°06' W 127°43'612.2
2018-May-13 13:00N 47°60' W 127°41'612.1
2018-May-13 12:29N 47°54' W 127°39'612.1
2018-May-13 11:59N 47°48' W 127°38'612.0
2018-May-13 11:30N 47°42' W 127°36'712.2
2018-May-13 10:57N 47°36' W 127°34'1611.9
2018-May-13 09:37N 47°20' W 127°29'112.2
2018-May-13 09:30N 47°19' W 127°28'612.2
2018-May-13 09:00N 47°13' W 127°26'  

Dump ship's entire track history